sensor_id;sensor_type;location;lat;lon;timestamp;temperature;humidity
23556;DHT22;11956;53.184;8.578;2023-09-07T00:00:51;19.60;99.90
23556;DHT22;11956;53.184;8.578;2023-09-07T00:03:52;19.50;99.90
23556;DHT22;11956;53.184;8.578;2023-09-07T00:06:53;19.30;99.90
23556;DHT22;11956;53.184;8.578;2023-09-07T00:09:54;19.20;99.90
23556;DHT22;11956;53.184;8.578;2023-09-07T00:12:55;19.10;99.90
23556;DHT22;11956;53.184;8.578;2023-09-07T00:15:59;18.90;99.90
23556;DHT22;11956;53.184;8.578;2023-09-07T00:19:01;18.80;99.90
23556;DHT22;11956;53.184;8.578;2023-09-07T00:22:05;18.80;99.90
23556;DHT22;11956;53.184;8.578;2023-09-07T00:25:06;18.80;99.90
23556;DHT22;11956;53.184;8.578;2023-09-07T00:28:07;18.70;99.90
23556;DHT22;11956;53.184;8.578;2023-09-07T00:31:08;18.70;99.90
23556;DHT22;11956;53.184;8.578;2023-09-07T00:34:09;18.70;99.90
23556;DHT22;11956;53.184;8.578;2023-09-07T00:37:10;18.80;99.90
23556;DHT22;11956;53.184;8.578;2023-09-07T00:40:11;18.70;99.90
23556;DHT22;11956;53.184;8.578;2023-09-07T00:43:12;18.70;99.90
23556;DHT22;11956;53.184;8.578;2023-09-07T00:46:13;18.70;99.90
23556;DHT22;11956;53.184;8.578;2023-09-07T00:49:14;18.70;99.90
23556;DHT22;11956;53.184;8.578;2023-09-07T00:52:15;18.70;99.90
23556;DHT22;11956;53.184;8.578;2023-09-07T00:55:16;18.70;99.90
23556;DHT22;11956;53.184;8.578;2023-09-07T00:58:17;18.70;99.90
23556;DHT22;11956;53.184;8.578;2023-09-07T01:01:18;18.70;99.90
23556;DHT22;11956;53.184;8.578;2023-09-07T01:04:19;18.60;99.90
23556;DHT22;11956;53.184;8.578;2023-09-07T01:07:24;18.60;99.90
23556;DHT22;11956;53.184;8.578;2023-09-07T01:10:26;18.60;99.90
23556;DHT22;11956;53.184;8.578;2023-09-07T01:13:27;18.50;99.90
23556;DHT22;11956;53.184;8.578;2023-09-07T01:16:28;18.40;99.90
23556;DHT22;11956;53.184;8.578;2023-09-07T01:19:29;18.30;99.90
23556;DHT22;11956;53.184;8.578;2023-09-07T01:22:30;18.30;99.90
23556;DHT22;11956;53.184;8.578;2023-09-07T01:25:32;18.20;99.90
23556;DHT22;11956;53.184;8.578;2023-09-07T01:28:34;18.20;99.90
23556;DHT22;11956;53.184;8.578;2023-09-07T01:31:36;18.30;99.90
23556;DHT22;11956;53.184;8.578;2023-09-07T01:34:40;18.30;99.90
23556;DHT22;11956;53.184;8.578;2023-09-07T01:37:41;18.40;99.90
23556;DHT22;11956;53.184;8.578;2023-09-07T01:40:42;18.30;99.90
23556;DHT22;11956;53.184;8.578;2023-09-07T01:43:43;18.40;99.90
23556;DHT22;11956;53.184;8.578;2023-09-07T01:46:44;18.30;99.90
23556;DHT22;11956;53.184;8.578;2023-09-07T01:49:45;18.20;99.90
23556;DHT22;11956;53.184;8.578;2023-09-07T01:52:47;18.20;99.90
23556;DHT22;11956;53.184;8.578;2023-09-07T01:55:49;18.20;99.90
23556;DHT22;11956;53.184;8.578;2023-09-07T01:58:51;18.20;99.90
23556;DHT22;11956;53.184;8.578;2023-09-07T02:01:52;18.10;99.90
23556;DHT22;11956;53.184;8.578;2023-09-07T02:04:54;18.00;99.90
23556;DHT22;11956;53.184;8.578;2023-09-07T02:07:55;17.90;99.90
23556;DHT22;11956;53.184;8.578;2023-09-07T02:10:56;17.90;99.90
23556;DHT22;11956;53.184;8.578;2023-09-07T02:13:57;17.80;99.90
23556;DHT22;11956;53.184;8.578;2023-09-07T02:16:58;17.80;99.90
23556;DHT22;11956;53.184;8.578;2023-09-07T02:19:59;17.80;99.90
23556;DHT22;11956;53.184;8.578;2023-09-07T02:23:00;17.80;99.90
23556;DHT22;11956;53.184;8.578;2023-09-07T02:26:02;17.90;99.90
23556;DHT22;11956;53.184;8.578;2023-09-07T02:29:03;17.90;99.90
23556;DHT22;11956;53.184;8.578;2023-09-07T02:32:08;17.90;99.90
23556;DHT22;11956;53.184;8.578;2023-09-07T02:35:11;17.80;99.90
23556;DHT22;11956;53.184;8.578;2023-09-07T02:38:13;17.80;99.90
23556;DHT22;11956;53.184;8.578;2023-09-07T02:41:14;17.80;99.90
23556;DHT22;11956;53.184;8.578;2023-09-07T02:44:15;17.80;99.90
23556;DHT22;11956;53.184;8.578;2023-09-07T02:47:16;17.80;99.90
23556;DHT22;11956;53.184;8.578;2023-09-07T02:50:17;17.90;99.90
23556;DHT22;11956;53.184;8.578;2023-09-07T02:53:18;18.00;99.90
23556;DHT22;11956;53.184;8.578;2023-09-07T02:56:19;18.10;99.90
23556;DHT22;11956;53.184;8.578;2023-09-07T02:59:20;18.10;99.90
23556;DHT22;11956;53.184;8.578;2023-09-07T03:02:22;18.10;99.90
23556;DHT22;11956;53.184;8.578;2023-09-07T03:05:27;18.20;99.90
23556;DHT22;11956;53.184;8.578;2023-09-07T03:08:29;18.30;99.90
23556;DHT22;11956;53.184;8.578;2023-09-07T03:11:30;18.30;99.90
23556;DHT22;11956;53.184;8.578;2023-09-07T03:14:36;18.30;99.90
23556;DHT22;11956;53.184;8.578;2023-09-07T03:17:37;18.40;99.90
23556;DHT22;11956;53.184;8.578;2023-09-07T03:20:38;18.50;99.90
23556;DHT22;11956;53.184;8.578;2023-09-07T03:23:39;18.50;99.90
23556;DHT22;11956;53.184;8.578;2023-09-07T03:26:45;18.50;99.90
23556;DHT22;11956;53.184;8.578;2023-09-07T03:29:46;18.50;99.90
23556;DHT22;11956;53.184;8.578;2023-09-07T03:32:47;18.40;99.90
23556;DHT22;11956;53.184;8.578;2023-09-07T03:35:49;18.30;99.90
23556;DHT22;11956;53.184;8.578;2023-09-07T03:38:49;18.20;99.90
23556;DHT22;11956;53.184;8.578;2023-09-07T03:41:50;18.10;99.90
23556;DHT22;11956;53.184;8.578;2023-09-07T03:44:53;18.10;99.90
23556;DHT22;11956;53.184;8.578;2023-09-07T03:47:53;18.00;99.90
23556;DHT22;11956;53.184;8.578;2023-09-07T03:50:55;18.00;99.90
23556;DHT22;11956;53.184;8.578;2023-09-07T03:53:56;17.90;99.90
23556;DHT22;11956;53.184;8.578;2023-09-07T03:56:57;17.90;99.90
23556;DHT22;11956;53.184;8.578;2023-09-07T03:59:58;17.80;99.90
23556;DHT22;11956;53.184;8.578;2023-09-07T04:02:59;17.80;99.90
23556;DHT22;11956;53.184;8.578;2023-09-07T04:06:00;17.80;99.90
23556;DHT22;11956;53.184;8.578;2023-09-07T04:09:02;17.80;99.90
23556;DHT22;11956;53.184;8.578;2023-09-07T04:12:03;17.80;99.90
23556;DHT22;11956;53.184;8.578;2023-09-07T04:15:04;17.70;99.90
23556;DHT22;11956;53.184;8.578;2023-09-07T04:18:06;17.70;99.90
23556;DHT22;11956;53.184;8.578;2023-09-07T04:21:07;17.70;99.90
23556;DHT22;11956;53.184;8.578;2023-09-07T04:24:09;17.70;99.90
23556;DHT22;11956;53.184;8.578;2023-09-07T04:27:12;17.70;99.90
23556;DHT22;11956;53.184;8.578;2023-09-07T04:30:14;17.80;99.90
23556;DHT22;11956;53.184;8.578;2023-09-07T04:33:15;17.70;99.90
23556;DHT22;11956;53.184;8.578;2023-09-07T04:36:16;17.70;99.90
23556;DHT22;11956;53.184;8.578;2023-09-07T04:39:20;17.70;99.90
23556;DHT22;11956;53.184;8.578;2023-09-07T04:42:21;17.70;99.90
23556;DHT22;11956;53.184;8.578;2023-09-07T04:45:22;17.70;99.90
23556;DHT22;11956;53.184;8.578;2023-09-07T04:48:24;17.70;99.90
23556;DHT22;11956;53.184;8.578;2023-09-07T04:51:25;17.60;99.90
23556;DHT22;11956;53.184;8.578;2023-09-07T04:54:27;17.60;99.90
23556;DHT22;11956;53.184;8.578;2023-09-07T04:57:30;17.60;99.90
23556;DHT22;11956;53.184;8.578;2023-09-07T05:00:31;17.60;99.90
23556;DHT22;11956;53.184;8.578;2023-09-07T05:03:32;17.60;99.90
23556;DHT22;11956;53.184;8.578;2023-09-07T05:06:34;17.60;99.90
23556;DHT22;11956;53.184;8.578;2023-09-07T05:09:39;17.60;99.90
23556;DHT22;11956;53.184;8.578;2023-09-07T05:12:40;17.60;99.90
23556;DHT22;11956;53.184;8.578;2023-09-07T05:15:48;17.70;99.90
23556;DHT22;11956;53.184;8.578;2023-09-07T05:18:50;17.70;99.90
23556;DHT22;11956;53.184;8.578;2023-09-07T05:21:51;17.70;99.90
23556;DHT22;11956;53.184;8.578;2023-09-07T05:24:52;17.80;99.90
23556;DHT22;11956;53.184;8.578;2023-09-07T05:27:53;17.80;99.90
23556;DHT22;11956;53.184;8.578;2023-09-07T05:30:54;17.80;99.90
23556;DHT22;11956;53.184;8.578;2023-09-07T05:33:57;17.90;99.90
23556;DHT22;11956;53.184;8.578;2023-09-07T05:36:58;18.00;99.90
23556;DHT22;11956;53.184;8.578;2023-09-07T05:39:59;18.40;99.90
23556;DHT22;11956;53.184;8.578;2023-09-07T05:43:00;19.30;99.90
23556;DHT22;11956;53.184;8.578;2023-09-07T05:46:01;20.20;99.90
23556;DHT22;11956;53.184;8.578;2023-09-07T05:49:03;21.20;99.90
23556;DHT22;11956;53.184;8.578;2023-09-07T05:52:04;21.70;99.90
23556;DHT22;11956;53.184;8.578;2023-09-07T05:55:06;22.30;99.90
23556;DHT22;11956;53.184;8.578;2023-09-07T05:58:08;23.20;99.90
23556;DHT22;11956;53.184;8.578;2023-09-07T06:01:12;23.80;99.90
23556;DHT22;11956;53.184;8.578;2023-09-07T06:04:14;23.70;99.90
23556;DHT22;11956;53.184;8.578;2023-09-07T06:07:15;24.20;99.90
23556;DHT22;11956;53.184;8.578;2023-09-07T06:10:16;23.90;99.90
23556;DHT22;11956;53.184;8.578;2023-09-07T06:13:18;24.00;99.90
23556;DHT22;11956;53.184;8.578;2023-09-07T06:16:19;24.70;99.90
23556;DHT22;11956;53.184;8.578;2023-09-07T06:19:20;25.20;99.90
23556;DHT22;11956;53.184;8.578;2023-09-07T06:22:22;26.00;99.90
23556;DHT22;11956;53.184;8.578;2023-09-07T06:25:25;27.10;99.90
23556;DHT22;11956;53.184;8.578;2023-09-07T06:28:27;27.40;99.90
23556;DHT22;11956;53.184;8.578;2023-09-07T06:31:28;28.20;99.90
23556;DHT22;11956;53.184;8.578;2023-09-07T06:34:29;28.40;99.00
23556;DHT22;11956;53.184;8.578;2023-09-07T06:37:31;27.60;99.90
23556;DHT22;11956;53.184;8.578;2023-09-07T06:40:32;28.50;99.00
23556;DHT22;11956;53.184;8.578;2023-09-07T06:43:33;28.90;98.00
23556;DHT22;11956;53.184;8.578;2023-09-07T06:46:34;29.20;97.10
23556;DHT22;11956;53.184;8.578;2023-09-07T06:49:38;29.80;96.00
23556;DHT22;11956;53.184;8.578;2023-09-07T06:52:39;29.90;96.00
23556;DHT22;11956;53.184;8.578;2023-09-07T06:55:41;31.00;93.90
23556;DHT22;11956;53.184;8.578;2023-09-07T06:58:41;31.40;92.80
23556;DHT22;11956;53.184;8.578;2023-09-07T07:01:42;31.90;91.90
23556;DHT22;11956;53.184;8.578;2023-09-07T07:04:44;32.90;91.10
23556;DHT22;11956;53.184;8.578;2023-09-07T07:07:48;32.50;90.10
23556;DHT22;11956;53.184;8.578;2023-09-07T07:10:49;32.80;90.00
23556;DHT22;11956;53.184;8.578;2023-09-07T07:13:50;33.70;86.60
23556;DHT22;11956;53.184;8.578;2023-09-07T07:16:51;33.50;87.30
23556;DHT22;11956;53.184;8.578;2023-09-07T07:19:52;34.50;84.60
23556;DHT22;11956;53.184;8.578;2023-09-07T07:22:53;34.80;82.60
23556;DHT22;11956;53.184;8.578;2023-09-07T07:25:54;35.30;80.40
23556;DHT22;11956;53.184;8.578;2023-09-07T07:28:57;34.90;80.40
23556;DHT22;11956;53.184;8.578;2023-09-07T07:31:58;35.30;79.20
23556;DHT22;11956;53.184;8.578;2023-09-07T07:34:59;35.70;76.70
23556;DHT22;11956;53.184;8.578;2023-09-07T07:38:02;35.20;77.70
23556;DHT22;11956;53.184;8.578;2023-09-07T07:41:09;33.10;81.60
23556;DHT22;11956;53.184;8.578;2023-09-07T07:44:10;31.40;85.10
23556;DHT22;11956;53.184;8.578;2023-09-07T07:47:11;29.80;90.10
23556;DHT22;11956;53.184;8.578;2023-09-07T07:50:12;29.00;91.30
23556;DHT22;11956;53.184;8.578;2023-09-07T07:53:13;30.70;90.60
23556;DHT22;11956;53.184;8.578;2023-09-07T07:56:17;32.10;86.50
23556;DHT22;11956;53.184;8.578;2023-09-07T07:59:19;32.00;85.90
23556;DHT22;11956;53.184;8.578;2023-09-07T08:02:20;31.60;89.70
23556;DHT22;11956;53.184;8.578;2023-09-07T08:05:21;31.80;89.30
23556;DHT22;11956;53.184;8.578;2023-09-07T08:08:22;33.90;85.20
23556;DHT22;11956;53.184;8.578;2023-09-07T08:11:23;36.00;79.50
23556;DHT22;11956;53.184;8.578;2023-09-07T08:14:27;34.70;80.70
23556;DHT22;11956;53.184;8.578;2023-09-07T08:17:28;35.60;80.50
23556;DHT22;11956;53.184;8.578;2023-09-07T08:20:32;35.40;78.80
23556;DHT22;11956;53.184;8.578;2023-09-07T08:23:34;35.20;79.40
23556;DHT22;11956;53.184;8.578;2023-09-07T08:26:36;36.20;78.50
23556;DHT22;11956;53.184;8.578;2023-09-07T08:29:37;36.50;77.20
23556;DHT22;11956;53.184;8.578;2023-09-07T08:32:38;36.90;75.60
23556;DHT22;11956;53.184;8.578;2023-09-07T08:35:39;35.20;78.50
23556;DHT22;11956;53.184;8.578;2023-09-07T08:38:44;33.90;80.90
23556;DHT22;11956;53.184;8.578;2023-09-07T08:41:45;34.30;80.20
23556;DHT22;11956;53.184;8.578;2023-09-07T08:44:47;34.10;79.80
23556;DHT22;11956;53.184;8.578;2023-09-07T08:47:50;32.60;82.30
23556;DHT22;11956;53.184;8.578;2023-09-07T08:50:52;33.30;82.70
23556;DHT22;11956;53.184;8.578;2023-09-07T08:53:53;34.40;80.20
23556;DHT22;11956;53.184;8.578;2023-09-07T08:56:57;33.00;84.30
23556;DHT22;11956;53.184;8.578;2023-09-07T09:00:01;32.90;84.40
23556;DHT22;11956;53.184;8.578;2023-09-07T09:03:12;32.50;85.30
23556;DHT22;11956;53.184;8.578;2023-09-07T09:06:16;33.40;85.30
23556;DHT22;11956;53.184;8.578;2023-09-07T09:09:23;35.00;81.00
23556;DHT22;11956;53.184;8.578;2023-09-07T09:12:24;34.40;82.50
23556;DHT22;11956;53.184;8.578;2023-09-07T09:15:26;34.30;80.70
23556;DHT22;11956;53.184;8.578;2023-09-07T09:18:30;33.90;83.10
23556;DHT22;11956;53.184;8.578;2023-09-07T09:21:30;33.80;82.60
23556;DHT22;11956;53.184;8.578;2023-09-07T09:24:35;33.20;84.10
23556;DHT22;11956;53.184;8.578;2023-09-07T09:27:36;31.50;88.00
23556;DHT22;11956;53.184;8.578;2023-09-07T09:30:37;30.80;90.60
23556;DHT22;11956;53.184;8.578;2023-09-07T09:33:44;31.50;90.30
23556;DHT22;11956;53.184;8.578;2023-09-07T09:36:49;31.50;89.70
23556;DHT22;11956;53.184;8.578;2023-09-07T09:39:50;32.80;86.50
23556;DHT22;11956;53.184;8.578;2023-09-07T09:42:55;31.70;88.20
23556;DHT22;11956;53.184;8.578;2023-09-07T09:45:57;32.40;87.60
23556;DHT22;11956;53.184;8.578;2023-09-07T09:49:00;33.20;86.20
23556;DHT22;11956;53.184;8.578;2023-09-07T09:52:04;33.40;85.10
23556;DHT22;11956;53.184;8.578;2023-09-07T09:55:07;33.20;86.00
23556;DHT22;11956;53.184;8.578;2023-09-07T09:58:10;32.60;86.50
23556;DHT22;11956;53.184;8.578;2023-09-07T10:01:11;32.90;86.30
23556;DHT22;11956;53.184;8.578;2023-09-07T10:04:17;32.70;88.40
23556;DHT22;11956;53.184;8.578;2023-09-07T10:07:19;33.80;85.20
23556;DHT22;11956;53.184;8.578;2023-09-07T10:10:35;34.50;83.20
23556;DHT22;11956;53.184;8.578;2023-09-07T10:13:37;34.30;82.60
23556;DHT22;11956;53.184;8.578;2023-09-07T10:16:45;34.80;82.00
23556;DHT22;11956;53.184;8.578;2023-09-07T10:19:47;34.40;82.60
23556;DHT22;11956;53.184;8.578;2023-09-07T10:23:02;35.20;81.50
23556;DHT22;11956;53.184;8.578;2023-09-07T10:26:05;35.30;82.10
23556;DHT22;11956;53.184;8.578;2023-09-07T10:29:10;33.60;83.00
23556;DHT22;11956;53.184;8.578;2023-09-07T10:32:13;32.70;86.20
23556;DHT22;11956;53.184;8.578;2023-09-07T10:35:20;32.30;86.90
23556;DHT22;11956;53.184;8.578;2023-09-07T10:38:23;31.50;87.90
23556;DHT22;11956;53.184;8.578;2023-09-07T10:41:24;31.40;89.70
23556;DHT22;11956;53.184;8.578;2023-09-07T10:44:26;31.20;90.10
23556;DHT22;11956;53.184;8.578;2023-09-07T10:47:27;30.00;91.60
23556;DHT22;11956;53.184;8.578;2023-09-07T10:50:29;29.00;93.40
23556;DHT22;11956;53.184;8.578;2023-09-07T10:53:32;29.00;94.00
23556;DHT22;11956;53.184;8.578;2023-09-07T10:56:33;28.40;94.60
23556;DHT22;11956;53.184;8.578;2023-09-07T10:59:34;27.80;95.90
23556;DHT22;11956;53.184;8.578;2023-09-07T11:02:34;27.20;96.60
23556;DHT22;11956;53.184;8.578;2023-09-07T11:05:36;27.30;98.50
23556;DHT22;11956;53.184;8.578;2023-09-07T11:08:38;27.20;97.20
23556;DHT22;11956;53.184;8.578;2023-09-07T11:11:40;27.20;98.10
23556;DHT22;11956;53.184;8.578;2023-09-07T11:14:41;27.50;97.90
23556;DHT22;11956;53.184;8.578;2023-09-07T11:17:42;27.50;97.60
23556;DHT22;11956;53.184;8.578;2023-09-07T11:20:49;27.70;96.70
23556;DHT22;11956;53.184;8.578;2023-09-07T11:23:51;27.70;96.90
23556;DHT22;11956;53.184;8.578;2023-09-07T11:26:52;27.80;97.20
23556;DHT22;11956;53.184;8.578;2023-09-07T11:29:53;27.50;96.70
23556;DHT22;11956;53.184;8.578;2023-09-07T11:33:21;27.50;96.80
23556;DHT22;11956;53.184;8.578;2023-09-07T11:36:23;27.40;96.70
23556;DHT22;11956;53.184;8.578;2023-09-07T11:39:25;27.40;97.40
23556;DHT22;11956;53.184;8.578;2023-09-07T11:42:26;27.60;97.00
23556;DHT22;11956;53.184;8.578;2023-09-07T11:45:26;27.60;96.60
23556;DHT22;11956;53.184;8.578;2023-09-07T11:48:28;27.60;96.10
23556;DHT22;11956;53.184;8.578;2023-09-07T11:51:29;27.70;95.90
23556;DHT22;11956;53.184;8.578;2023-09-07T11:54:29;27.70;95.30
23556;DHT22;11956;53.184;8.578;2023-09-07T11:57:30;27.80;95.20
23556;DHT22;11956;53.184;8.578;2023-09-07T12:00:31;27.80;95.70
23556;DHT22;11956;53.184;8.578;2023-09-07T12:03:32;27.70;95.30
23556;DHT22;11956;53.184;8.578;2023-09-07T12:06:33;27.70;94.90
23556;DHT22;11956;53.184;8.578;2023-09-07T12:09:34;27.80;95.90
23556;DHT22;11956;53.184;8.578;2023-09-07T12:12:42;28.00;96.20
23556;DHT22;11956;53.184;8.578;2023-09-07T12:15:44;28.00;95.50
23556;DHT22;11956;53.184;8.578;2023-09-07T12:18:45;27.80;94.90
23556;DHT22;11956;53.184;8.578;2023-09-07T12:21:46;27.80;95.00
23556;DHT22;11956;53.184;8.578;2023-09-07T12:24:46;28.00;96.00
23556;DHT22;11956;53.184;8.578;2023-09-07T12:27:47;28.00;95.30
23556;DHT22;11956;53.184;8.578;2023-09-07T12:30:48;28.20;95.30
23556;DHT22;11956;53.184;8.578;2023-09-07T12:33:49;28.20;95.00
23556;DHT22;11956;53.184;8.578;2023-09-07T12:36:50;28.10;95.30
23556;DHT22;11956;53.184;8.578;2023-09-07T12:39:51;28.10;95.60
23556;DHT22;11956;53.184;8.578;2023-09-07T12:42:52;28.30;95.30
23556;DHT22;11956;53.184;8.578;2023-09-07T12:45:53;28.10;95.20
23556;DHT22;11956;53.184;8.578;2023-09-07T12:48:54;28.30;94.80
23556;DHT22;11956;53.184;8.578;2023-09-07T12:51:55;28.30;94.10
23556;DHT22;11956;53.184;8.578;2023-09-07T12:54:55;28.40;94.70
23556;DHT22;11956;53.184;8.578;2023-09-07T12:57:56;28.50;93.80
23556;DHT22;11956;53.184;8.578;2023-09-07T13:00:57;28.30;92.60
23556;DHT22;11956;53.184;8.578;2023-09-07T13:03:58;28.10;92.40
23556;DHT22;11956;53.184;8.578;2023-09-07T13:06:59;28.10;92.40
23556;DHT22;11956;53.184;8.578;2023-09-07T13:10:02;28.20;92.30
23556;DHT22;11956;53.184;8.578;2023-09-07T13:13:04;28.30;92.90
23556;DHT22;11956;53.184;8.578;2023-09-07T13:16:05;28.40;92.80
23556;DHT22;11956;53.184;8.578;2023-09-07T13:19:06;28.50;93.40
23556;DHT22;11956;53.184;8.578;2023-09-07T13:22:08;28.40;93.00
23556;DHT22;11956;53.184;8.578;2023-09-07T13:25:09;28.40;93.10
23556;DHT22;11956;53.184;8.578;2023-09-07T13:28:10;28.30;92.80
23556;DHT22;11956;53.184;8.578;2023-09-07T13:31:11;28.30;93.00
23556;DHT22;11956;53.184;8.578;2023-09-07T13:34:12;28.40;93.20
23556;DHT22;11956;53.184;8.578;2023-09-07T13:37:13;28.40;92.40
23556;DHT22;11956;53.184;8.578;2023-09-07T13:40:14;28.50;92.70
23556;DHT22;11956;53.184;8.578;2023-09-07T13:43:15;28.30;92.60
23556;DHT22;11956;53.184;8.578;2023-09-07T13:46:16;28.40;92.90
23556;DHT22;11956;53.184;8.578;2023-09-07T13:49:17;28.40;92.50
23556;DHT22;11956;53.184;8.578;2023-09-07T13:52:19;28.30;92.20
23556;DHT22;11956;53.184;8.578;2023-09-07T13:55:20;28.40;91.80
23556;DHT22;11956;53.184;8.578;2023-09-07T13:58:21;28.40;92.20
23556;DHT22;11956;53.184;8.578;2023-09-07T14:01:22;28.30;92.20
23556;DHT22;11956;53.184;8.578;2023-09-07T14:04:24;28.30;92.60
23556;DHT22;11956;53.184;8.578;2023-09-07T14:07:25;28.30;92.70
23556;DHT22;11956;53.184;8.578;2023-09-07T14:10:26;28.30;93.00
23556;DHT22;11956;53.184;8.578;2023-09-07T14:13:27;28.30;93.10
23556;DHT22;11956;53.184;8.578;2023-09-07T14:16:28;28.40;93.50
23556;DHT22;11956;53.184;8.578;2023-09-07T14:19:29;28.50;94.00
23556;DHT22;11956;53.184;8.578;2023-09-07T14:22:31;28.40;93.60
23556;DHT22;11956;53.184;8.578;2023-09-07T14:25:32;28.40;93.70
23556;DHT22;11956;53.184;8.578;2023-09-07T14:28:33;28.40;93.40
23556;DHT22;11956;53.184;8.578;2023-09-07T14:31:34;28.40;93.70
23556;DHT22;11956;53.184;8.578;2023-09-07T14:34:36;28.40;93.40
23556;DHT22;11956;53.184;8.578;2023-09-07T14:37:37;28.40;93.40
23556;DHT22;11956;53.184;8.578;2023-09-07T14:40:38;28.50;93.40
23556;DHT22;11956;53.184;8.578;2023-09-07T14:43:39;28.50;93.60
23556;DHT22;11956;53.184;8.578;2023-09-07T14:46:40;28.40;93.50
23556;DHT22;11956;53.184;8.578;2023-09-07T14:49:41;28.30;93.20
23556;DHT22;11956;53.184;8.578;2023-09-07T14:52:42;28.40;93.30
23556;DHT22;11956;53.184;8.578;2023-09-07T14:55:47;28.40;94.00
23556;DHT22;11956;53.184;8.578;2023-09-07T14:58:48;28.50;94.00
23556;DHT22;11956;53.184;8.578;2023-09-07T15:01:49;28.50;93.80
23556;DHT22;11956;53.184;8.578;2023-09-07T15:04:51;28.40;93.90
23556;DHT22;11956;53.184;8.578;2023-09-07T15:07:52;28.40;94.10
23556;DHT22;11956;53.184;8.578;2023-09-07T15:10:53;28.40;93.80
23556;DHT22;11956;53.184;8.578;2023-09-07T15:13:56;28.40;93.90
23556;DHT22;11956;53.184;8.578;2023-09-07T15:16:57;28.40;94.40
23556;DHT22;11956;53.184;8.578;2023-09-07T15:19:59;28.40;93.80
23556;DHT22;11956;53.184;8.578;2023-09-07T15:23:00;28.40;94.30
23556;DHT22;11956;53.184;8.578;2023-09-07T15:26:00;28.30;94.20
23556;DHT22;11956;53.184;8.578;2023-09-07T15:29:03;28.30;94.60
23556;DHT22;11956;53.184;8.578;2023-09-07T15:32:04;28.40;94.60
23556;DHT22;11956;53.184;8.578;2023-09-07T15:35:08;28.40;95.10
23556;DHT22;11956;53.184;8.578;2023-09-07T15:38:09;28.40;94.70
23556;DHT22;11956;53.184;8.578;2023-09-07T15:41:10;28.30;94.80
23556;DHT22;11956;53.184;8.578;2023-09-07T15:44:11;28.20;95.70
23556;DHT22;11956;53.184;8.578;2023-09-07T15:47:13;28.20;95.50
23556;DHT22;11956;53.184;8.578;2023-09-07T15:50:14;28.30;95.80
23556;DHT22;11956;53.184;8.578;2023-09-07T15:53:15;28.20;95.70
23556;DHT22;11956;53.184;8.578;2023-09-07T15:56:16;28.20;96.00
23556;DHT22;11956;53.184;8.578;2023-09-07T15:59:17;28.20;96.10
23556;DHT22;11956;53.184;8.578;2023-09-07T16:02:18;28.20;96.60
23556;DHT22;11956;53.184;8.578;2023-09-07T16:05:19;28.20;96.40
23556;DHT22;11956;53.184;8.578;2023-09-07T16:08:21;28.10;96.90
23556;DHT22;11956;53.184;8.578;2023-09-07T16:11:22;28.10;97.20
23556;DHT22;11956;53.184;8.578;2023-09-07T16:14:23;28.10;97.60
23556;DHT22;11956;53.184;8.578;2023-09-07T16:17:23;28.00;97.50
23556;DHT22;11956;53.184;8.578;2023-09-07T16:20:24;28.00;97.90
23556;DHT22;11956;53.184;8.578;2023-09-07T16:23:25;27.90;97.80
23556;DHT22;11956;53.184;8.578;2023-09-07T16:26:26;27.80;98.10
23556;DHT22;11956;53.184;8.578;2023-09-07T16:29:27;27.90;98.50
23556;DHT22;11956;53.184;8.578;2023-09-07T16:32:28;27.80;98.50
23556;DHT22;11956;53.184;8.578;2023-09-07T16:35:28;27.80;98.90
23556;DHT22;11956;53.184;8.578;2023-09-07T16:38:29;27.70;99.00
23556;DHT22;11956;53.184;8.578;2023-09-07T16:41:31;27.70;99.70
23556;DHT22;11956;53.184;8.578;2023-09-07T16:44:32;27.60;99.80
23556;DHT22;11956;53.184;8.578;2023-09-07T16:47:33;27.60;99.90
23556;DHT22;11956;53.184;8.578;2023-09-07T16:50:34;27.50;99.90
23556;DHT22;11956;53.184;8.578;2023-09-07T16:53:36;27.40;99.90
23556;DHT22;11956;53.184;8.578;2023-09-07T16:56:38;27.40;99.90
23556;DHT22;11956;53.184;8.578;2023-09-07T16:59:39;27.30;99.90
23556;DHT22;11956;53.184;8.578;2023-09-07T17:02:40;27.20;99.90
23556;DHT22;11956;53.184;8.578;2023-09-07T17:05:41;27.20;99.90
23556;DHT22;11956;53.184;8.578;2023-09-07T17:08:42;27.10;99.90
23556;DHT22;11956;53.184;8.578;2023-09-07T17:11:43;27.10;99.90
23556;DHT22;11956;53.184;8.578;2023-09-07T17:14:44;27.00;99.90
23556;DHT22;11956;53.184;8.578;2023-09-07T17:17:47;26.90;99.90
23556;DHT22;11956;53.184;8.578;2023-09-07T17:20:49;26.90;99.90
23556;DHT22;11956;53.184;8.578;2023-09-07T17:23:50;26.70;99.90
23556;DHT22;11956;53.184;8.578;2023-09-07T17:26:51;26.70;99.90
23556;DHT22;11956;53.184;8.578;2023-09-07T17:29:52;26.60;99.90
23556;DHT22;11956;53.184;8.578;2023-09-07T17:32:53;26.40;99.90
23556;DHT22;11956;53.184;8.578;2023-09-07T17:35:57;26.30;99.90
23556;DHT22;11956;53.184;8.578;2023-09-07T17:38:58;26.20;99.90
23556;DHT22;11956;53.184;8.578;2023-09-07T17:41:58;26.10;99.90
23556;DHT22;11956;53.184;8.578;2023-09-07T17:44:59;26.00;99.90
23556;DHT22;11956;53.184;8.578;2023-09-07T17:48:00;25.90;99.90
23556;DHT22;11956;53.184;8.578;2023-09-07T17:51:02;25.80;99.90
23556;DHT22;11956;53.184;8.578;2023-09-07T17:54:04;25.70;99.90
23556;DHT22;11956;53.184;8.578;2023-09-07T17:57:04;25.60;99.90
23556;DHT22;11956;53.184;8.578;2023-09-07T18:00:06;25.40;99.90
23556;DHT22;11956;53.184;8.578;2023-09-07T18:03:07;25.30;99.90
23556;DHT22;11956;53.184;8.578;2023-09-07T18:06:08;25.20;99.90
23556;DHT22;11956;53.184;8.578;2023-09-07T18:09:09;25.10;99.90
23556;DHT22;11956;53.184;8.578;2023-09-07T18:12:10;24.90;99.90
23556;DHT22;11956;53.184;8.578;2023-09-07T18:15:11;24.80;99.90
23556;DHT22;11956;53.184;8.578;2023-09-07T18:18:12;24.70;99.90
23556;DHT22;11956;53.184;8.578;2023-09-07T18:21:13;24.60;99.90
23556;DHT22;11956;53.184;8.578;2023-09-07T18:24:13;24.50;99.90
23556;DHT22;11956;53.184;8.578;2023-09-07T18:27:14;24.50;99.90
23556;DHT22;11956;53.184;8.578;2023-09-07T18:30:15;24.40;99.90
23556;DHT22;11956;53.184;8.578;2023-09-07T18:33:17;24.40;99.90
23556;DHT22;11956;53.184;8.578;2023-09-07T18:36:19;24.30;99.90
23556;DHT22;11956;53.184;8.578;2023-09-07T18:39:20;24.20;99.90
23556;DHT22;11956;53.184;8.578;2023-09-07T18:42:20;24.10;99.90
23556;DHT22;11956;53.184;8.578;2023-09-07T18:45:23;24.10;99.90
23556;DHT22;11956;53.184;8.578;2023-09-07T18:48:25;24.00;99.90
23556;DHT22;11956;53.184;8.578;2023-09-07T18:51:26;24.00;99.90
23556;DHT22;11956;53.184;8.578;2023-09-07T18:54:27;24.10;99.90
23556;DHT22;11956;53.184;8.578;2023-09-07T18:57:27;24.10;99.90
23556;DHT22;11956;53.184;8.578;2023-09-07T19:00:29;24.10;99.90
23556;DHT22;11956;53.184;8.578;2023-09-07T19:03:29;24.00;99.90
23556;DHT22;11956;53.184;8.578;2023-09-07T19:06:30;23.90;99.90